Time;durP1;ratioP1;P1;durP2;ratioP2;P2;SDS_P1;SDS_P2;PMS_P1;PMS_P2;Temp;Humidity;BMP_temperature;BMP_pressure;BME280_temperature;BME280_humidity;BME280_pressure;Samples;Min_cycle;Max_cycle;Signal;HPM_P1;HPM_P2
2022/06/16 00:01:23;;;;;;;;;4.75;4.50;23.50;99.90;;;;;;4934022;28;9009;-50
2022/06/16 00:03:54;;;;;;;;;8.00;8.00;23.50;99.90;;;;;;4906546;28;8870;-50
2022/06/16 00:06:24;;;;;;;;;4.00;4.00;23.50;99.90;;;;;;4931778;28;8864;-50
2022/06/16 00:08:54;;;;;;;;;6.00;6.00;23.60;99.90;;;;;;4932496;28;9564;-48
2022/06/16 00:11:26;;;;;;;;;7.25;6.00;23.50;99.90;;;;;;4931801;28;8885;-47
2022/06/16 00:13:56;;;;;;;;;5.75;5.75;23.40;99.90;;;;;;4927037;28;8910;-48
2022/06/16 00:16:27;;;;;;;;;5.50;5.50;23.40;99.90;;;;;;4934127;28;8867;-48
2022/06/16 00:18:57;;;;;;;;;7.00;5.00;23.40;99.90;;;;;;4948388;28;8852;-49
2022/06/16 00:21:29;;;;;;;;;5.00;5.00;23.50;99.90;;;;;;4953018;28;8869;-50
2022/06/16 00:23:59;;;;;;;;;8.00;8.00;23.50;99.90;;;;;;4947821;28;8876;-46
2022/06/16 00:26:30;;;;;;;;;6.25;6.25;23.50;99.90;;;;;;4951737;28;9000;-49
2022/06/16 00:29:00;;;;;;;;;6.00;6.00;23.50;99.90;;;;;;4932192;28;8893;-48
2022/06/16 00:31:38;;;;;;;;;5.75;5.75;23.50;99.90;;;;;;4934946;28;8853;-52
2022/06/16 00:34:08;;;;;;;;;5.00;5.00;23.50;99.90;;;;;;4933729;28;8817;-47
2022/06/16 00:36:39;;;;;;;;;7.00;5.50;23.50;99.90;;;;;;4927782;28;8880;-51
2022/06/16 00:39:09;;;;;;;;;3.25;3.00;23.30;99.90;;;;;;4930120;28;8896;-52
2022/06/16 00:41:40;;;;;;;;;5.75;5.75;23.40;99.90;;;;;;4959157;28;8829;-48
2022/06/16 00:44:27;;;;;;;;;4.75;4.75;23.40;99.90;;;;;;4953626;28;8899;-49
2022/06/16 00:46:56;;;;;;;;;4.50;4.50;23.40;99.90;;;;;;4953184;28;8887;-51
2022/06/16 00:49:29;;;;;;;;;5.00;5.00;23.40;99.90;;;;;;4941548;28;8923;-50
2022/06/16 00:52:03;;;;;;;;;6.25;6.25;23.40;99.90;;;;;;4933147;28;8849;-51
2022/06/16 00:54:40;;;;;;;;;7.25;5.00;23.30;99.90;;;;;;4947769;28;8860;-50
2022/06/16 00:57:16;;;;;;;;;7.00;6.50;23.40;99.90;;;;;;4950461;28;8876;-48
2022/06/16 00:59:48;;;;;;;;;6.50;5.25;23.30;99.90;;;;;;4953622;28;9006;-50
2022/06/16 01:02:24;;;;;;;;;6.00;6.00;23.30;99.90;;;;;;4952605;28;9008;-51
2022/06/16 01:04:55;;;;;;;;;4.25;4.25;23.30;99.90;;;;;;4953695;28;8876;-51
2022/06/16 01:07:35;;;;;;;;;4.50;4.50;23.20;99.90;;;;;;4962370;28;9017;-52
2022/06/16 01:10:06;;;;;;;;;3.50;2.00;23.00;99.90;;;;;;4951125;28;8971;-51
2022/06/16 01:15:52;;;;;;;;;4.50;4.50;22.90;99.90;;;;;;4951915;28;8888;-50
2022/06/16 01:18:43;;;;;;;;;5.00;5.00;22.60;99.90;;;;;;4950533;28;8992;-52
2022/06/16 01:21:25;;;;;;;;;6.00;6.00;22.50;99.90;;;;;;4952164;28;8864;-51
2022/06/16 01:24:03;;;;;;;;;2.75;2.75;22.40;99.90;;;;;;4935958;28;8874;-50
2022/06/16 01:26:54;;;;;;;;;4.25;4.25;22.40;99.90;;;;;;4959919;28;9038;-59
2022/06/16 01:29:38;;;;;;;;;4.50;4.50;22.40;99.90;;;;;;4939548;28;8869;-49
2022/06/16 01:32:19;;;;;;;;;4.50;4.50;22.30;99.90;;;;;;4935554;28;8928;-52
2022/06/16 01:35:13;;;;;;;;;5.50;5.50;22.30;99.90;;;;;;4933774;28;9639;-49
2022/06/16 01:38:12;;;;;;;;;4.00;4.00;22.30;99.90;;;;;;4938870;28;8849;-48
2022/06/16 01:41:03;;;;;;;;;6.00;5.00;22.40;99.90;;;;;;4932867;28;8861;-52
2022/06/16 01:44:00;;;;;;;;;5.75;4.00;22.40;99.90;;;;;;4953711;28;8848;-47
2022/06/16 01:46:34;;;;;;;;;6.00;4.00;22.30;99.90;;;;;;4921925;28;8864;-51
2022/06/16 01:49:31;;;;;;;;;5.25;4.50;22.10;99.90;;;;;;4952804;28;8891;-46
2022/06/16 01:52:24;;;;;;;;;5.00;5.00;22.20;99.90;;;;;;4943124;28;8869;-54
2022/06/16 01:55:11;;;;;;;;;5.00;5.00;22.30;99.90;;;;;;4933598;28;8872;-51
2022/06/16 01:57:56;;;;;;;;;2.33;2.33;22.30;99.90;;;;;;4932520;28;9051;-50
2022/06/16 02:00:28;;;;;;;;;3.00;3.00;22.20;99.90;;;;;;4934553;28;8972;-50
2022/06/16 02:03:14;;;;;;;;;5.33;4.00;22.20;99.90;;;;;;4939742;28;8877;-49
2022/06/16 02:05:56;;;;;;;;;4.00;4.00;22.20;99.90;;;;;;4956359;28;9042;-47
2022/06/16 02:08:34;;;;;;;;;3.67;3.33;22.20;99.90;;;;;;4933673;28;8913;-47
2022/06/16 02:11:13;;;;;;;;;5.25;4.75;22.20;99.90;;;;;;4943894;28;9056;-49
2022/06/16 02:14:03;;;;;;;;;4.00;4.00;22.20;99.90;;;;;;4934048;28;8849;-50
2022/06/16 02:16:37;;;;;;;;;5.00;5.00;22.00;99.90;;;;;;4948716;28;8982;-50
2022/06/16 02:19:13;;;;;;;;;5.00;3.33;22.00;99.90;;;;;;4927364;28;8892;-48
2022/06/16 02:21:46;;;;;;;;;4.00;4.00;22.00;99.90;;;;;;4939861;28;9059;-47
2022/06/16 02:24:18;;;;;;;;;4.00;4.00;22.00;99.90;;;;;;4934489;28;9021;-49
2022/06/16 02:26:50;;;;;;;;;2.67;1.67;21.80;99.90;;;;;;4939243;28;8931;-49
2022/06/16 02:29:34;;;;;;;;;3.33;3.00;21.80;99.90;;;;;;4918794;28;9106;-54
2022/06/16 02:32:43;;;;;;;;;4.00;4.00;21.80;99.90;;;;;;4916226;28;10010;-49
2022/06/16 02:35:36;;;;;;;;;4.00;4.00;21.60;99.90;;;;;;4926528;28;9143;-46
2022/06/16 02:38:13;;;;;;;;;5.00;4.00;21.60;99.90;;;;;;4933897;28;9359;-47
2022/06/16 02:41:44;;;;;;;;;7.00;5.33;21.50;99.90;;;;;;4941034;28;9328;-47
2022/06/16 02:44:39;;;;;;;;;3.33;3.33;21.60;99.90;;;;;;4865610;29;9450;-51
2022/06/16 02:47:48;;;;;;;;;4.00;4.00;21.60;99.90;;;;;;4863040;29;9183;-51
2022/06/16 02:50:34;;;;;;;;;3.67;3.67;21.50;99.90;;;;;;4914864;28;9120;-47
2022/06/16 02:53:46;;;;;;;;;3.00;3.00;21.40;99.90;;;;;;4917124;28;9361;-57
2022/06/16 02:57:00;;;;;;;;;4.67;4.67;21.30;99.90;;;;;;4920901;28;9374;-50
2022/06/16 02:59:41;;;;;;;;;3.00;2.33;21.20;99.90;;;;;;4906915;28;9371;-49
2022/06/16 03:02:18;;;;;;;;;4.00;4.00;21.10;99.90;;;;;;4936723;28;9316;-47
2022/06/16 03:04:56;;;;;;;;;3.67;3.67;21.10;99.90;;;;;;4919462;28;10046;-49
2022/06/16 03:07:28;;;;;;;;;4.00;4.00;21.00;99.90;;;;;;4930065;28;9319;-47
2022/06/16 03:10:50;;;;;;;;;2.33;2.33;20.90;99.90;;;;;;4913566;28;9624;-49
2022/06/16 03:13:08;;;;;;;;;6.67;4.33;20.90;99.90;;;;;;4925154;28;9517;-48
2022/06/16 03:15:38;;;;;;;;;4.00;4.00;20.90;99.90;;;;;;4917467;28;9626;-48
2022/06/16 03:18:10;;;;;;;;;4.00;3.00;20.90;99.90;;;;;;4928163;28;9534;-49
2022/06/16 03:20:40;;;;;;;;;4.00;4.00;20.80;99.90;;;;;;4932040;28;9449;-49
2022/06/16 03:23:10;;;;;;;;;3.00;3.00;20.70;99.90;;;;;;4934126;28;9444;-48
2022/06/16 03:25:43;;;;;;;;;3.00;3.00;20.70;99.90;;;;;;4933093;28;9662;-50
2022/06/16 03:28:15;;;;;;;;;3.00;3.00;20.70;99.90;;;;;;4934002;28;9416;-51
2022/06/16 03:30:46;;;;;;;;;4.33;4.33;20.60;99.90;;;;;;4936896;28;9671;-52
2022/06/16 03:33:20;;;;;;;;;5.00;5.00;20.60;99.90;;;;;;4930994;28;10279;-49
2022/06/16 03:35:54;;;;;;;;;3.67;2.33;20.50;99.90;;;;;;4939951;28;9639;-50
2022/06/16 03:38:38;;;;;;;;;4.00;4.00;20.40;99.90;;;;;;4928090;28;10517;-49
2022/06/16 03:41:13;;;;;;;;;0.75;0.75;20.30;99.90;;;;;;4959921;28;9818;-48
2022/06/16 03:43:43;;;;;;;;;4.00;3.00;20.30;99.90;;;;;;4948383;28;9725;-48
2022/06/16 03:46:17;;;;;;;;;4.00;3.00;20.30;99.90;;;;;;4935992;28;9585;-47
2022/06/16 03:48:59;;;;;;;;;3.00;3.00;20.20;99.90;;;;;;4936395;28;9740;-47
2022/06/16 03:51:51;;;;;;;;;3.50;3.50;20.10;99.90;;;;;;4946897;28;9641;-47
2022/06/16 03:54:26;;;;;;;;;2.00;2.00;20.10;99.90;;;;;;4936889;28;9652;-47
2022/06/16 03:57:01;;;;;;;;;2.50;2.50;20.00;99.90;;;;;;4945439;28;9797;-48
2022/06/16 03:59:31;;;;;;;;;3.75;3.75;20.00;99.90;;;;;;4941680;28;9809;-49
2022/06/16 04:02:10;;;;;;;;;4.25;4.25;19.90;99.90;;;;;;4936968;28;9709;-50
2022/06/16 04:04:41;;;;;;;;;3.00;3.00;19.90;99.90;;;;;;4941453;28;9741;-51
2022/06/16 04:07:14;;;;;;;;;4.75;4.75;19.90;99.90;;;;;;4937340;28;10635;-48
2022/06/16 04:09:56;;;;;;;;;4.50;4.00;19.80;99.90;;;;;;4935867;28;9626;-46
2022/06/16 04:12:27;;;;;;;;;3.25;3.25;19.80;99.90;;;;;;4939763;28;9851;-50
2022/06/16 04:14:59;;;;;;;;;4.00;4.00;19.80;99.90;;;;;;4934660;28;9985;-51
2022/06/16 04:17:30;;;;;;;;;3.00;3.00;19.70;99.90;;;;;;4937791;28;9928;-51
2022/06/16 04:20:15;;;;;;;;;3.50;3.50;19.70;99.90;;;;;;4935123;28;9984;-49
2022/06/16 04:23:15;;;;;;;;;4.00;4.00;19.70;99.90;;;;;;4875326;28;9700;-49
2022/06/16 04:25:46;;;;;;;;;3.50;3.50;19.70;99.90;;;;;;4934881;28;9653;-51
2022/06/16 04:28:20;;;;;;;;;3.00;3.00;19.60;99.90;;;;;;4943287;28;9938;-52
2022/06/16 04:30:57;;;;;;;;;3.00;3.00;19.60;99.90;;;;;;4936139;28;9971;-51
2022/06/16 04:33:32;;;;;;;;;4.25;4.25;19.50;99.90;;;;;;4933985;28;9967;-48
2022/06/16 04:36:06;;;;;;;;;3.00;3.00;19.50;99.90;;;;;;4933275;28;10191;-51
2022/06/16 04:38:42;;;;;;;;;4.00;2.00;19.50;99.90;;;;;;4955242;28;9811;-49
2022/06/16 04:41:14;;;;;;;;;3.75;3.75;19.40;99.90;;;;;;4936526;28;9908;-49
2022/06/16 04:43:48;;;;;;;;;3.00;3.00;19.40;99.90;;;;;;4935859;28;9979;-51
2022/06/16 04:46:19;;;;;;;;;3.75;3.75;19.30;99.90;;;;;;4938316;28;10002;-50
2022/06/16 04:48:53;;;;;;;;;0.25;0.25;19.30;99.90;;;;;;4932598;28;9959;-50
2022/06/16 04:51:23;;;;;;;;;3.00;3.00;19.30;99.90;;;;;;4932888;28;9868;-49
2022/06/16 04:53:54;;;;;;;;;4.00;3.00;19.30;99.90;;;;;;4936831;28;10074;-46
2022/06/16 04:56:47;;;;;;;;;4.00;4.00;19.20;99.90;;;;;;4925840;28;10863;-47
2022/06/16 04:59:37;;;;;;;;;3.50;2.00;19.10;99.90;;;;;;4943346;28;10002;-50
2022/06/16 05:02:27;;;;;;;;;4.50;4.50;19.10;99.90;;;;;;4943004;28;9807;-48
2022/06/16 05:05:18;;;;;;;;;3.75;3.75;19.10;99.90;;;;;;4934965;28;9921;-47
2022/06/16 05:08:18;;;;;;;;;3.25;3.25;19.10;99.90;;;;;;4936533;28;10329;-51
2022/06/16 05:10:56;;;;;;;;;2.25;2.25;19.00;99.90;;;;;;4940057;28;10063;-50
2022/06/16 05:13:38;;;;;;;;;1.50;1.50;19.00;99.90;;;;;;4938990;28;10817;-49
2022/06/16 05:16:29;;;;;;;;;3.25;2.50;19.00;99.90;;;;;;4937144;28;9775;-51
2022/06/16 05:19:24;;;;;;;;;3.00;3.00;19.00;99.90;;;;;;4941519;28;10099;-47
2022/06/16 05:22:13;;;;;;;;;3.75;3.75;18.90;99.90;;;;;;4946966;28;10379;-47
2022/06/16 05:25:02;;;;;;;;;3.50;3.50;18.90;99.90;;;;;;4931644;28;10335;-51
2022/06/16 05:28:08;;;;;;;;;3.00;3.00;18.90;99.90;;;;;;4899020;29;10254;-51
2022/06/16 05:30:56;;;;;;;;;5.00;5.00;18.80;99.90;;;;;;4942138;28;10420;-48
2022/06/16 05:33:38;;;;;;;;;4.25;4.25;18.80;99.90;;;;;;4922857;28;10291;-53
2022/06/16 05:36:38;;;;;;;;;2.50;2.50;18.80;99.90;;;;;;4928286;28;10449;-51
2022/06/16 05:39:26;;;;;;;;;3.50;3.50;18.80;99.90;;;;;;4944046;28;10145;-49
2022/06/16 05:42:21;;;;;;;;;5.00;5.00;18.70;99.90;;;;;;4938552;28;10293;-49
2022/06/16 05:45:14;;;;;;;;;3.75;3.75;18.70;99.90;;;;;;4926763;28;10320;-51
2022/06/16 05:47:56;;;;;;;;;4.25;4.25;18.70;99.90;;;;;;4927031;28;10469;-49
2022/06/16 05:50:28;;;;;;;;;4.75;4.75;18.70;99.90;;;;;;4938994;28;10575;-53
2022/06/16 05:52:59;;;;;;;;;4.25;4.25;18.60;99.90;;;;;;4944140;28;10530;-49
2022/06/16 05:55:34;;;;;;;;;4.50;4.50;18.60;99.90;;;;;;4924525;28;10586;-51
2022/06/16 05:58:06;;;;;;;;;6.25;6.25;18.60;99.90;;;;;;4923448;28;10803;-49
2022/06/16 06:00:49;;;;;;;;;5.50;5.50;18.60;99.90;;;;;;4937324;28;10745;-50
2022/06/16 06:03:23;;;;;;;;;5.00;5.00;18.50;99.90;;;;;;4931158;28;11346;-52
2022/06/16 06:05:54;;;;;;;;;2.00;2.00;18.50;99.90;;;;;;4928124;28;10559;-51
2022/06/16 06:17:06;;;;;;;;;6.25;6.25;18.40;99.90;;;;;;4935083;28;10478;-49
2022/06/16 06:19:37;;;;;;;;;5.50;5.50;18.40;99.90;;;;;;4938607;28;10553;-48
2022/06/16 06:22:17;;;;;;;;;4.00;4.00;18.40;99.90;;;;;;4939648;28;10564;-48
2022/06/16 06:24:58;;;;;;;;;6.50;6.50;18.30;99.90;;;;;;4940213;28;10523;-47
2022/06/16 06:27:42;;;;;;;;;3.00;3.00;18.30;99.90;;;;;;4938598;28;10728;-48
2022/06/16 06:30:24;;;;;;;;;6.50;6.00;18.30;99.90;;;;;;4954651;28;11226;-51
2022/06/16 06:32:55;;;;;;;;;5.25;5.25;18.30;99.90;;;;;;4939113;28;10641;-47
2022/06/16 06:35:27;;;;;;;;;4.25;4.25;18.30;99.90;;;;;;4938180;28;10619;-49
2022/06/16 06:37:58;;;;;;;;;4.25;4.25;18.20;99.90;;;;;;4953950;28;10514;-51
2022/06/16 06:40:34;;;;;;;;;3.50;3.25;18.10;99.90;;;;;;4956435;28;10397;-51
2022/06/16 06:43:04;;;;;;;;;6.00;5.00;18.20;99.90;;;;;;4958551;28;10241;-49
2022/06/16 06:45:36;;;;;;;;;3.00;1.75;18.10;99.90;;;;;;4955791;28;10362;-49
2022/06/16 06:48:08;;;;;;;;;4.75;4.75;18.10;99.90;;;;;;4954479;28;10222;-50
2022/06/16 06:50:40;;;;;;;;;3.75;3.75;18.10;99.90;;;;;;4937403;28;11513;-51
2022/06/16 06:53:10;;;;;;;;;3.25;3.25;18.00;99.90;;;;;;4954491;28;10392;-51
2022/06/16 06:55:42;;;;;;;;;6.00;6.00;18.00;99.90;;;;;;4958066;28;10203;-49
2022/06/16 06:58:24;;;;;;;;;2.00;2.00;18.00;99.90;;;;;;4951392;28;10422;-48
2022/06/16 07:00:54;;;;;;;;;1.75;1.75;18.00;99.90;;;;;;4962215;28;11095;-52
2022/06/16 07:03:25;;;;;;;;;3.50;3.50;18.00;99.90;;;;;;4946209;28;11284;-50
2022/06/16 07:05:59;;;;;;;;;6.00;4.00;17.90;99.90;;;;;;4958222;28;11125;-46
2022/06/16 07:08:31;;;;;;;;;4.00;4.00;17.90;99.90;;;;;;4955232;28;10439;-50
2022/06/16 07:11:02;;;;;;;;;4.00;4.00;17.90;99.90;;;;;;4953838;28;10487;-50
2022/06/16 07:13:33;;;;;;;;;4.00;4.00;17.80;99.90;;;;;;4954219;28;10939;-47
2022/06/16 07:16:03;;;;;;;;;5.75;5.75;17.90;99.90;;;;;;4962772;28;11337;-50
2022/06/16 07:18:34;;;;;;;;;3.25;3.25;17.80;99.90;;;;;;4946049;28;10533;-53
2022/06/16 07:21:04;;;;;;;;;4.75;3.75;17.80;99.90;;;;;;4943143;28;11159;-48
2022/06/16 07:23:36;;;;;;;;;6.50;5.00;17.80;99.90;;;;;;4941125;28;10636;-49
2022/06/16 07:26:13;;;;;;;;;6.75;5.00;17.80;99.90;;;;;;4941008;28;10647;-47
2022/06/16 07:28:44;;;;;;;;;5.00;5.00;17.80;99.90;;;;;;4943102;28;10732;-47
2022/06/16 07:31:15;;;;;;;;;6.00;5.25;17.70;99.90;;;;;;4941361;28;10829;-49
2022/06/16 07:34:05;;;;;;;;;5.25;4.50;17.70;99.90;;;;;;4931076;28;10814;-48
2022/06/16 07:36:36;;;;;;;;;6.00;6.00;17.70;99.90;;;;;;4936868;28;10701;-46
2022/06/16 07:39:06;;;;;;;;;5.75;4.00;17.70;99.90;;;;;;4914873;28;10796;-50
2022/06/16 07:41:39;;;;;;;;;4.75;4.75;17.70;99.90;;;;;;4931367;28;10647;-51
2022/06/16 07:44:14;;;;;;;;;4.75;4.75;17.70;99.90;;;;;;4937609;28;10578;-50
2022/06/16 07:46:48;;;;;;;;;5.25;5.25;17.60;99.90;;;;;;4943017;28;10725;-51
2022/06/16 07:49:25;;;;;;;;;3.50;3.50;17.60;99.90;;;;;;4933879;28;10773;-49
2022/06/16 07:52:00;;;;;;;;;4.50;4.25;17.60;99.90;;;;;;4934628;28;10349;-51
2022/06/16 07:54:30;;;;;;;;;5.25;5.25;17.60;99.90;;;;;;4939099;28;10740;-49
2022/06/16 07:57:21;;;;;;;;;6.00;4.50;17.60;99.90;;;;;;4934123;28;10679;-49
2022/06/16 07:59:59;;;;;;;;;3.00;3.00;17.60;99.90;;;;;;4930956;28;11763;-51
2022/06/16 08:02:29;;;;;;;;;3.75;3.25;17.50;99.90;;;;;;4939866;28;10690;-53
2022/06/16 08:05:00;;;;;;;;;6.00;6.00;17.50;99.90;;;;;;4933363;28;10728;-50
2022/06/16 08:07:30;;;;;;;;;1.75;1.75;17.50;99.90;;;;;;4934323;28;10720;-48
2022/06/16 08:10:00;;;;;;;;;8.00;8.00;17.50;99.90;;;;;;4934842;28;10755;-51
2022/06/16 08:12:31;;;;;;;;;4.25;4.25;17.50;99.90;;;;;;4940911;28;10902;-50
2022/06/16 08:15:03;;;;;;;;;5.75;5.75;17.50;99.90;;;;;;4940593;28;10921;-49
2022/06/16 08:17:37;;;;;;;;;6.50;6.50;17.50;99.90;;;;;;4939362;28;11002;-49
2022/06/16 08:20:09;;;;;;;;;5.75;5.75;17.50;99.90;;;;;;4952130;28;11156;-49
2022/06/16 08:22:39;;;;;;;;;7.50;7.50;17.40;99.90;;;;;;4960810;28;10956;-50
2022/06/16 08:25:12;;;;;;;;;9.00;7.25;17.40;99.90;;;;;;4951650;28;11163;-49
2022/06/16 08:27:45;;;;;;;;;6.00;6.00;17.30;99.90;;;;;;4952015;28;11089;-50
2022/06/16 08:30:16;;;;;;;;;9.00;9.00;17.30;99.90;;;;;;4952281;28;10935;-50
2022/06/16 08:32:53;;;;;;;;;8.50;8.50;17.30;99.90;;;;;;4945782;28;11194;-51
2022/06/16 08:35:24;;;;;;;;;9.00;9.00;17.30;99.90;;;;;;4952771;28;11984;-48
2022/06/16 08:37:54;;;;;;;;;8.50;7.50;17.30;99.90;;;;;;4952577;28;11225;-49
2022/06/16 08:40:25;;;;;;;;;9.50;9.50;17.30;99.90;;;;;;4950581;28;11294;-47
2022/06/16 08:43:05;;;;;;;;;11.25;10.00;17.30;99.90;;;;;;4953653;28;11100;-50
2022/06/16 08:45:41;;;;;;;;;10.00;10.00;17.30;99.90;;;;;;4957098;28;12194;-50
2022/06/16 08:49:02;;;;;;;;;8.75;8.75;17.30;99.90;;;;;;4949652;28;12232;-51
2022/06/16 08:52:15;;;;;;;;;15.00;15.00;17.20;99.90;;;;;;4924392;28;11453;-51
2022/06/16 08:55:25;;;;;;;;;15.75;15.75;17.20;99.90;;;;;;4913307;28;11535;-49
2022/06/16 08:58:04;;;;;;;;;14.50;14.50;17.20;99.90;;;;;;4941557;28;11500;-52
2022/06/16 09:00:46;;;;;;;;;22.50;22.50;17.20;99.90;;;;;;4951436;28;11489;-47
2022/06/16 09:03:26;;;;;;;;;21.25;21.25;17.10;99.90;;;;;;4955223;28;11694;-52
2022/06/16 09:06:01;;;;;;;;;22.00;22.00;17.10;99.90;;;;;;4953071;28;11516;-54
2022/06/16 09:08:44;;;;;;;;;19.50;18.75;17.10;99.90;;;;;;4949974;28;12383;-50
2022/06/16 09:11:32;;;;;;;;;19.75;19.75;17.10;99.90;;;;;;4954238;28;11733;-48
2022/06/16 09:14:21;;;;;;;;;20.75;20.75;17.10;99.90;;;;;;4955519;28;12121;-52
2022/06/16 09:17:14;;;;;;;;;21.75;21.75;17.10;99.90;;;;;;4953705;28;11515;-52
2022/06/16 09:20:14;;;;;;;;;23.75;23.75;17.10;99.90;;;;;;4947368;28;11545;-51
2022/06/16 09:23:03;;;;;;;;;21.75;21.75;17.10;99.90;;;;;;4951313;28;12735;-51
2022/06/16 09:26:03;;;;;;;;;23.50;23.50;17.00;99.90;;;;;;4948914;28;11549;-52
2022/06/16 09:28:45;;;;;;;;;18.25;17.25;17.00;99.90;;;;;;4950750;28;11567;-51
2022/06/16 09:31:28;;;;;;;;;19.50;19.25;17.00;99.90;;;;;;4938618;28;11581;-51
2022/06/16 09:34:30;;;;;;;;;17.00;17.00;17.00;99.90;;;;;;4936105;28;11535;-49
2022/06/16 09:37:14;;;;;;;;;17.50;17.50;17.00;99.90;;;;;;4931773;28;11597;-49
2022/06/16 09:40:02;;;;;;;;;17.25;17.25;17.00;99.90;;;;;;4953414;28;11710;-48
2022/06/16 09:42:39;;;;;;;;;8.75;8.75;16.90;99.90;;;;;;4949621;28;11529;-51
2022/06/16 09:45:17;;;;;;;;;9.75;9.50;16.90;99.90;;;;;;4951506;28;11503;-50
2022/06/16 09:48:00;;;;;;;;;8.75;8.75;16.90;99.90;;;;;;4938387;28;11313;-49
2022/06/16 09:50:38;;;;;;;;;6.00;6.00;16.90;99.90;;;;;;4957273;28;12248;-52
2022/06/16 09:53:14;;;;;;;;;4.00;4.00;16.80;99.90;;;;;;4945793;28;11140;-50
2022/06/16 09:56:07;;;;;;;;;3.50;3.50;16.80;99.90;;;;;;4947975;28;11196;-49
2022/06/16 09:58:46;;;;;;;;;6.75;5.50;16.80;99.90;;;;;;4954983;28;10909;-47
2022/06/16 10:01:20;;;;;;;;;4.00;4.00;16.80;99.90;;;;;;4951561;28;10385;-48
2022/06/16 10:03:56;;;;;;;;;3.75;3.75;16.80;99.90;;;;;;4951474;28;10854;-49
2022/06/16 10:06:54;;;;;;;;;4.25;4.25;16.80;99.90;;;;;;4934588;28;10781;-53
2022/06/16 10:09:27;;;;;;;;;4.25;4.25;16.80;99.90;;;;;;4956194;28;11344;-50
2022/06/16 10:12:18;;;;;;;;;4.25;3.00;16.80;99.90;;;;;;4952730;28;10527;-48
2022/06/16 10:15:00;;;;;;;;;3.75;3.75;16.70;99.90;;;;;;4959301;28;10546;-45
2022/06/16 10:17:30;;;;;;;;;4.00;4.00;16.70;99.90;;;;;;4943665;28;10572;-50
2022/06/16 10:20:02;;;;;;;;;5.00;5.00;16.80;99.90;;;;;;4953679;28;10634;-49
2022/06/16 10:22:36;;;;;;;;;4.50;4.00;16.70;99.90;;;;;;4952998;28;10488;-48
2022/06/16 10:25:28;;;;;;;;;3.00;3.00;16.70;99.90;;;;;;4950023;28;10658;-47
2022/06/16 10:28:34;;;;;;;;;5.50;5.50;16.70;99.90;;;;;;4950212;28;10571;-47
2022/06/16 10:31:07;;;;;;;;;4.25;4.00;16.70;99.90;;;;;;4949791;28;10663;-49
2022/06/16 10:33:54;;;;;;;;;4.75;4.75;16.60;99.90;;;;;;4949251;28;11235;-49
2022/06/16 10:36:26;;;;;;;;;1.00;1.00;16.60;99.90;;;;;;4951198;28;10581;-49
2022/06/16 10:39:20;;;;;;;;;5.25;5.25;16.60;99.90;;;;;;4957806;28;10572;-50
2022/06/16 10:42:07;;;;;;;;;7.00;7.00;16.60;99.90;;;;;;4950154;28;10648;-49
2022/06/16 10:44:40;;;;;;;;;4.75;4.75;16.60;99.90;;;;;;4957779;28;10425;-48
2022/06/16 10:47:32;;;;;;;;;4.00;4.00;16.50;99.90;;;;;;4951984;28;11424;-49
2022/06/16 10:50:07;;;;;;;;;7.00;5.00;16.50;99.90;;;;;;4962124;28;11292;-49
2022/06/16 10:52:43;;;;;;;;;5.00;5.00;16.50;99.90;;;;;;4955603;28;10539;-48
2022/06/16 10:55:16;;;;;;;;;5.00;5.00;16.50;99.90;;;;;;4958299;28;10514;-50
2022/06/16 10:58:00;;;;;;;;;5.75;4.75;16.50;99.90;;;;;;4958236;28;10624;-46
2022/06/16 11:00:35;;;;;;;;;4.25;3.75;16.50;99.90;;;;;;4953848;28;10567;-47
2022/06/16 11:03:06;;;;;;;;;4.50;4.50;16.50;99.90;;;;;;4958515;28;10579;-47
2022/06/16 11:06:07;;;;;;;;;5.50;5.50;16.50;99.90;;;;;;4959567;28;10757;-51
2022/06/16 11:08:40;;;;;;;;;5.00;5.00;16.50;99.90;;;;;;4951207;28;10789;-49
2022/06/16 11:11:31;;;;;;;;;5.00;5.00;16.50;99.90;;;;;;4970129;28;10719;-50
2022/06/16 11:14:03;;;;;;;;;4.75;4.00;16.50;99.90;;;;;;4955102;28;11495;-49
2022/06/16 11:16:38;;;;;;;;;4.00;4.00;16.50;99.90;;;;;;4958527;28;10410;-46
2022/06/16 11:19:18;;;;;;;;;5.00;5.00;16.50;99.90;;;;;;4934080;28;10785;-47
2022/06/16 11:21:49;;;;;;;;;5.00;5.00;16.40;99.90;;;;;;4953360;28;10632;-47
2022/06/16 11:24:32;;;;;;;;;4.25;4.25;16.40;99.90;;;;;;4951232;28;10735;-46
2022/06/16 11:27:12;;;;;;;;;5.75;5.75;16.40;99.90;;;;;;4955748;28;10608;-48
2022/06/16 11:29:44;;;;;;;;;5.00;5.00;16.40;99.90;;;;;;4944127;28;10644;-51
2022/06/16 11:32:28;;;;;;;;;5.00;5.00;16.40;99.90;;;;;;4960265;28;10815;-50
2022/06/16 11:34:58;;;;;;;;;7.00;4.50;16.40;99.90;;;;;;4946005;28;10694;-47
2022/06/16 11:37:47;;;;;;;;;3.25;3.25;16.40;99.90;;;;;;4941622;28;10737;-47
2022/06/16 11:40:49;;;;;;;;;4.50;4.50;16.40;99.90;;;;;;4951002;28;10725;-49
2022/06/16 11:43:29;;;;;;;;;6.25;5.25;16.40;99.90;;;;;;4902974;28;10860;-51
2022/06/16 11:46:10;;;;;;;;;4.25;4.25;16.30;99.90;;;;;;4951874;28;10867;-47
2022/06/16 11:48:53;;;;;;;;;5.75;5.75;16.30;99.90;;;;;;4948966;28;10742;-45
2022/06/16 11:51:38;;;;;;;;;4.75;4.75;16.30;99.90;;;;;;4951867;28;12023;-51
2022/06/16 11:54:19;;;;;;;;;6.25;6.25;16.30;99.90;;;;;;4943207;28;10820;-51
2022/06/16 11:57:22;;;;;;;;;4.50;4.50;16.30;99.90;;;;;;4951240;28;10856;-49
2022/06/16 12:00:13;;;;;;;;;3.75;3.75;16.30;99.90;;;;;;4954365;28;10726;-47
2022/06/16 12:02:59;;;;;;;;;6.50;6.50;16.20;99.90;;;;;;4952210;28;10857;-51
2022/06/16 12:05:33;;;;;;;;;4.50;4.50;16.30;99.90;;;;;;4950259;28;10801;-48
2022/06/16 12:08:25;;;;;;;;;4.00;4.00;16.30;99.90;;;;;;4958706;28;10752;-47
2022/06/16 12:11:07;;;;;;;;;4.50;4.50;16.20;99.90;;;;;;4951933;28;10748;-50
2022/06/16 12:13:50;;;;;;;;;3.50;3.50;16.20;99.90;;;;;;4942950;28;10748;-49
2022/06/16 12:16:26;;;;;;;;;5.50;5.50;16.20;99.90;;;;;;4935228;28;10968;-51
2022/06/16 12:19:15;;;;;;;;;4.50;4.50;16.20;99.90;;;;;;4932547;28;10880;-50
2022/06/16 12:22:24;;;;;;;;;2.00;2.00;16.20;99.90;;;;;;4935476;28;10926;-48
2022/06/16 12:25:12;;;;;;;;;7.75;6.00;16.20;99.90;;;;;;4896515;28;10885;-51
2022/06/16 12:27:46;;;;;;;;;3.00;3.00;16.20;99.90;;;;;;4932652;28;10996;-50
2022/06/16 12:30:26;;;;;;;;;4.75;4.75;16.20;99.90;;;;;;4938582;28;10911;-52
2022/06/16 12:33:12;;;;;;;;;4.25;4.25;16.20;99.90;;;;;;4932611;28;10819;-48
2022/06/16 12:35:56;;;;;;;;;4.50;4.50;16.10;99.90;;;;;;4932367;28;10964;-49
2022/06/16 12:38:36;;;;;;;;;4.25;4.25;16.10;99.90;;;;;;4938428;28;10972;-50
2022/06/16 12:41:11;;;;;;;;;3.00;3.00;16.10;99.90;;;;;;4938391;28;10824;-48
2022/06/16 12:43:53;;;;;;;;;3.25;3.25;16.10;99.90;;;;;;4941040;28;10844;-50
2022/06/16 12:46:36;;;;;;;;;3.50;3.50;16.10;99.90;;;;;;4915104;28;10870;-50
2022/06/16 12:49:14;;;;;;;;;3.25;3.25;16.10;99.90;;;;;;4931907;28;11189;-50
2022/06/16 12:51:55;;;;;;;;;4.00;2.75;16.10;99.90;;;;;;4932226;28;10838;-50
2022/06/16 12:54:49;;;;;;;;;4.00;4.00;16.00;99.90;;;;;;4931800;28;10904;-49
2022/06/16 12:58:06;;;;;;;;;3.00;3.00;16.10;99.90;;;;;;4936704;28;10969;-47
2022/06/16 13:00:42;;;;;;;;;4.50;4.50;16.00;99.90;;;;;;4931586;28;10895;-49
2022/06/16 13:03:37;;;;;;;;;3.25;3.25;16.10;99.90;;;;;;4929211;28;10887;-49
2022/06/16 13:06:11;;;;;;;;;3.25;3.25;16.10;99.90;;;;;;4930788;28;10717;-48
2022/06/16 13:08:46;;;;;;;;;5.00;5.00;16.00;99.90;;;;;;4931566;28;11659;-51
2022/06/16 13:11:21;;;;;;;;;3.50;3.50;16.10;99.90;;;;;;4922766;28;11395;-48
2022/06/16 13:14:02;;;;;;;;;3.50;3.50;16.00;99.90;;;;;;4936199;28;10956;-49
2022/06/16 13:16:35;;;;;;;;;5.25;5.25;16.00;99.90;;;;;;4934153;28;11082;-48
2022/06/16 13:19:23;;;;;;;;;2.25;2.25;16.00;99.90;;;;;;4951201;28;10804;-50
2022/06/16 13:22:03;;;;;;;;;4.00;4.00;16.00;99.90;;;;;;4948458;28;11017;-49
2022/06/16 13:24:39;;;;;;;;;4.50;4.50;16.00;99.90;;;;;;4955252;28;10905;-51
2022/06/16 13:27:27;;;;;;;;;4.00;4.00;16.00;99.90;;;;;;4957828;28;11030;-50
2022/06/16 13:30:18;;;;;;;;;4.00;4.00;16.00;99.90;;;;;;4948833;28;10921;-50
2022/06/16 13:32:50;;;;;;;;;6.00;6.00;16.00;99.90;;;;;;4949321;28;11475;-51
2022/06/16 13:35:23;;;;;;;;;4.50;4.50;16.00;99.90;;;;;;4949214;28;11049;-47
2022/06/16 13:38:05;;;;;;;;;2.00;2.00;15.90;99.90;;;;;;4954952;28;10954;-49
2022/06/16 13:40:42;;;;;;;;;4.00;4.00;15.90;99.90;;;;;;4947845;28;10901;-48
2022/06/16 13:43:19;;;;;;;;;5.75;5.75;16.00;99.90;;;;;;4942993;28;11094;-52
2022/06/16 13:46:00;;;;;;;;;2.75;2.75;15.90;99.90;;;;;;4948411;28;11263;-49
2022/06/16 13:48:37;;;;;;;;;4.75;4.75;16.00;99.90;;;;;;4953972;28;10924;-48
2022/06/16 13:51:36;;;;;;;;;3.00;3.00;16.00;99.90;;;;;;4949361;28;11278;-47
2022/06/16 13:54:06;;;;;;;;;4.00;4.00;16.00;99.90;;;;;;4950879;28;10975;-46
2022/06/16 13:56:42;;;;;;;;;6.50;6.00;16.00;99.90;;;;;;4948566;28;10786;-46
2022/06/16 13:59:39;;;;;;;;;4.50;4.50;16.00;99.90;;;;;;4949446;28;10578;-47
2022/06/16 14:02:16;;;;;;;;;7.25;6.00;16.00;99.90;;;;;;4946557;28;10784;-48
2022/06/16 14:05:07;;;;;;;;;3.75;3.75;16.00;99.90;;;;;;4944915;28;10819;-49
2022/06/16 14:07:59;;;;;;;;;5.50;4.00;16.00;99.90;;;;;;4925178;28;10853;-48